createdAt,value
2018-11-06T00:00:32.526Z,11.06
2018-11-06T00:03:07.401Z,10.95
2018-11-06T00:05:36.945Z,10.88
2018-11-06T00:08:06.775Z,10.80
2018-11-06T00:10:36.278Z,10.78
2018-11-06T00:13:05.836Z,10.65
2018-11-06T00:15:35.354Z,10.57
2018-11-06T00:18:04.630Z,10.51
2018-11-06T00:20:35.412Z,10.39
2018-11-06T00:23:04.825Z,10.44
2018-11-06T00:25:34.961Z,10.39
2018-11-06T00:28:04.327Z,10.43
2018-11-06T00:30:33.675Z,10.54
2018-11-06T00:33:03.218Z,10.61
2018-11-06T00:35:32.650Z,10.48
2018-11-06T00:38:01.973Z,10.45
2018-11-06T00:40:31.316Z,10.18
2018-11-06T00:43:00.650Z,10.27
2018-11-06T00:45:29.958Z,10.25
2018-11-06T00:47:59.380Z,10.03
2018-11-06T00:50:28.649Z,10.10
2018-11-06T00:52:58.066Z,9.89
2018-11-06T00:55:27.420Z,10.02
2018-11-06T00:57:56.721Z,9.99
2018-11-06T01:00:26.007Z,10.01
2018-11-06T01:02:55.431Z,10.15
2018-11-06T01:05:24.836Z,9.79
2018-11-06T01:07:54.199Z,9.88
2018-11-06T01:10:23.828Z,9.95
2018-11-06T01:12:53.434Z,9.93
2018-11-06T01:15:23.237Z,9.89
2018-11-06T01:17:52.805Z,9.84
2018-11-06T01:20:22.389Z,9.84
2018-11-06T01:22:52.041Z,10.05
2018-11-06T01:25:21.647Z,9.93
2018-11-06T01:27:51.240Z,9.82
2018-11-06T01:30:21.191Z,9.98
2018-11-06T01:32:50.749Z,10.04
2018-11-06T01:35:20.047Z,10.08
2018-11-06T01:37:49.350Z,10.01
2018-11-06T01:40:19.241Z,10.09
2018-11-06T01:42:48.862Z,10.12
2018-11-06T01:45:19.408Z,10.18
2018-11-06T01:47:48.780Z,10.14
2018-11-06T01:50:18.646Z,10.09
2018-11-06T01:52:48.565Z,10.17
2018-11-06T01:55:17.941Z,10.26
2018-11-06T01:57:47.227Z,10.24
2018-11-06T02:00:17.764Z,9.99
2018-11-06T02:02:47.171Z,9.81
2018-11-06T02:05:17.453Z,9.89
2018-11-06T02:07:47.881Z,9.79
2018-11-06T02:10:17.543Z,10.02
2018-11-06T02:12:47.334Z,9.90
2018-11-06T02:15:16.868Z,10.07
2018-11-06T02:17:46.515Z,9.97
2018-11-06T02:20:16.263Z,9.81
2018-11-06T02:22:46.501Z,9.78
2018-11-06T02:25:15.971Z,9.88
2018-11-06T02:27:45.300Z,10.01
2018-11-06T02:30:15.999Z,9.96
2018-11-06T02:32:46.069Z,10.02
2018-11-06T02:35:15.391Z,9.91
2018-11-06T02:37:44.868Z,9.79
2018-11-06T02:40:15.303Z,9.89
2018-11-06T02:42:44.705Z,9.84
2018-11-06T02:45:14.383Z,9.79
2018-11-06T02:47:44.125Z,9.83
2018-11-06T02:50:14.164Z,9.92
2018-11-06T02:52:43.948Z,9.81
2018-11-06T02:55:13.522Z,9.90
2018-11-06T02:57:43.265Z,9.87
2018-11-06T03:00:15.775Z,9.92
2018-11-06T03:02:45.787Z,9.75
2018-11-06T03:05:15.113Z,9.95
2018-11-06T03:07:44.459Z,10.07
2018-11-06T03:10:14.658Z,9.91
2018-11-06T03:12:44.479Z,10.00
2018-11-06T03:15:14.636Z,10.00
2018-11-06T03:17:44.342Z,10.02
2018-11-06T03:20:14.187Z,9.93
2018-11-06T03:22:44.200Z,9.78
2018-11-06T03:25:13.938Z,9.78
2018-11-06T03:27:43.294Z,9.90
2018-11-06T03:30:14.334Z,10.01
2018-11-06T03:32:43.746Z,9.74
2018-11-06T03:35:13.910Z,9.75
2018-11-06T03:37:43.247Z,9.88
2018-11-06T03:40:13.014Z,9.87
2018-11-06T03:42:42.932Z,10.02
2018-11-06T03:45:13.350Z,9.81
2018-11-06T03:47:42.668Z,10.08
2018-11-06T03:50:12.966Z,10.01
2018-11-06T03:52:42.319Z,10.08
2018-11-06T03:55:11.714Z,10.20
2018-11-06T03:57:41.095Z,10.28
2018-11-06T04:00:13.416Z,10.28
2018-11-06T04:02:43.310Z,10.14
2018-11-06T04:05:12.861Z,9.99
2018-11-06T04:07:42.564Z,9.89
2018-11-06T04:10:12.590Z,9.98
2018-11-06T04:12:42.249Z,9.82
2018-11-06T04:15:12.985Z,9.97
2018-11-06T04:17:43.386Z,9.90
2018-11-06T04:20:12.798Z,9.67
2018-11-06T04:22:42.672Z,9.84
2018-11-06T04:25:12.068Z,9.70
2018-11-06T04:27:41.683Z,9.64
2018-11-06T04:30:13.056Z,9.45
2018-11-06T04:32:43.007Z,9.38
2018-11-06T04:35:12.958Z,9.68
2018-11-06T04:37:42.562Z,9.56
2018-11-06T04:40:13.466Z,9.57
2018-11-06T04:42:42.920Z,9.52
2018-11-06T04:45:12.822Z,9.48
2018-11-06T04:47:42.495Z,9.49
2018-11-06T04:50:12.204Z,9.47
2018-11-06T04:52:41.951Z,9.50
2018-11-06T04:55:12.447Z,9.40
2018-11-06T04:57:42.034Z,9.39
2018-11-06T05:00:13.128Z,9.39
2018-11-06T05:02:43.039Z,9.21
2018-11-06T05:05:12.750Z,9.29
2018-11-06T05:07:42.096Z,9.45
2018-11-06T05:10:14.726Z,9.39
2018-11-06T05:12:44.299Z,9.16
2018-11-06T05:15:14.802Z,9.13
2018-11-06T05:17:44.168Z,9.06
2018-11-06T05:20:18.655Z,9.08
2018-11-06T05:22:48.179Z,9.17
2018-11-06T05:25:17.546Z,9.24
2018-11-06T05:27:47.476Z,9.31
2018-11-06T05:30:16.727Z,9.30
2018-11-06T05:32:46.109Z,9.20
2018-11-06T05:35:15.430Z,9.17
2018-11-06T05:37:44.744Z,9.34
2018-11-06T05:40:54.582Z,9.44
2018-11-06T05:43:23.901Z,9.49
2018-11-06T05:45:53.766Z,9.05
2018-11-06T05:48:23.322Z,9.19
2018-11-06T05:50:52.619Z,9.19
2018-11-06T05:53:22.096Z,9.17
2018-11-06T05:55:51.360Z,9.34
2018-11-06T05:58:20.678Z,9.30
2018-11-06T06:00:50.020Z,8.99
2018-11-06T06:03:19.340Z,9.10
2018-11-06T06:05:48.652Z,9.09
2018-11-06T06:08:17.951Z,9.09
2018-11-06T06:10:47.511Z,9.09
2018-11-06T06:13:16.924Z,9.12
2018-11-06T06:15:46.290Z,9.17
2018-11-06T06:18:15.667Z,9.17
2018-11-06T06:20:45.063Z,9.13
2018-11-06T06:23:14.465Z,9.16
2018-11-06T06:25:43.833Z,8.99
2018-11-06T06:28:13.316Z,9.14
2018-11-06T06:30:42.708Z,9.17
2018-11-06T06:33:12.254Z,9.11
2018-11-06T06:35:41.639Z,9.10
2018-11-06T06:38:10.907Z,9.13
2018-11-06T06:40:40.283Z,9.10
2018-11-06T06:43:09.545Z,9.15
2018-11-06T06:45:38.943Z,9.29
2018-11-06T06:48:08.279Z,9.53
2018-11-06T06:50:37.688Z,9.44
2018-11-06T06:53:07.059Z,9.58
2018-11-06T06:55:36.670Z,9.66
2018-11-06T06:58:06.120Z,9.91
2018-11-06T07:00:35.637Z,10.17
2018-11-06T07:03:04.941Z,10.64
2018-11-06T07:05:34.429Z,11.13
2018-11-06T07:08:03.812Z,11.82
2018-11-06T07:10:33.241Z,12.58
2018-11-06T07:13:02.612Z,13.12
2018-11-06T07:15:32.027Z,13.38
2018-11-06T07:18:01.523Z,13.90
2018-11-06T07:20:30.826Z,14.53
2018-11-06T07:23:00.172Z,14.90
2018-11-06T07:25:29.526Z,15.31
2018-11-06T07:27:58.859Z,15.95
2018-11-06T07:30:28.152Z,16.26
2018-11-06T07:32:57.519Z,16.18
2018-11-06T07:35:26.967Z,16.23
2018-11-06T07:37:56.266Z,16.46
2018-11-06T07:40:25.675Z,17.11
2018-11-06T07:42:55.729Z,17.94
2018-11-06T07:45:25.188Z,18.80
2018-11-06T07:47:54.552Z,19.31
2018-11-06T07:50:23.953Z,19.49
2018-11-06T07:52:53.217Z,19.87
2018-11-06T07:55:22.566Z,20.72
2018-11-06T07:57:51.887Z,20.95
2018-11-06T08:00:24.691Z,21.58
2018-11-06T08:02:54.103Z,21.91
2018-11-06T08:05:23.434Z,22.60
2018-11-06T08:07:53.243Z,21.97
2018-11-06T08:10:22.666Z,22.27
2018-11-06T08:12:53.288Z,22.77
2018-11-06T08:15:22.875Z,21.77
2018-11-06T08:17:52.253Z,22.07
2018-11-06T08:20:21.953Z,22.18
2018-11-06T08:22:51.451Z,22.17
2018-11-06T08:25:20.772Z,22.55
2018-11-06T08:27:50.151Z,22.62
2018-11-06T08:30:19.525Z,23.18
2018-11-06T08:32:49.046Z,22.58
2018-11-06T08:35:18.760Z,23.49
2018-11-06T08:37:48.267Z,24.74
2018-11-06T08:40:18.334Z,24.55
2018-11-06T08:42:47.705Z,23.37
2018-11-06T08:45:17.952Z,24.45
2018-11-06T08:47:47.381Z,25.35
2018-11-06T08:50:18.154Z,24.96
2018-11-06T08:52:47.591Z,25.17
2018-11-06T08:55:17.481Z,24.23
2018-11-06T08:57:47.028Z,23.46
2018-11-06T09:00:17.679Z,23.99
2018-11-06T09:02:47.972Z,24.42
2018-11-06T09:05:17.913Z,24.37
2018-11-06T09:07:47.551Z,26.25
2018-11-06T09:10:17.319Z,25.37
2018-11-06T09:12:46.795Z,26.53
2018-11-06T09:15:17.033Z,25.19
2018-11-06T09:17:46.466Z,26.37
2018-11-06T09:20:16.757Z,27.77
2018-11-06T09:22:46.453Z,27.47
2018-11-06T09:25:17.460Z,28.43
2018-11-06T09:27:46.780Z,27.55
2018-11-06T09:30:17.662Z,28.05
2018-11-06T09:32:47.100Z,27.93
2018-11-06T09:35:16.761Z,28.53
2018-11-06T09:37:46.420Z,29.25
2018-11-06T09:40:17.150Z,27.50
2018-11-06T09:42:46.613Z,28.47
2018-11-06T09:45:16.216Z,29.24
2018-11-06T09:47:45.624Z,28.14
2018-11-06T09:50:16.880Z,27.75
2018-11-06T09:52:47.002Z,27.11
2018-11-06T09:55:17.113Z,26.20
2018-11-06T09:57:47.044Z,25.35
2018-11-06T10:00:17.933Z,25.25
2018-11-06T10:02:47.244Z,24.52
2018-11-06T10:05:16.948Z,23.11
2018-11-06T10:07:46.334Z,22.78
2018-11-06T10:10:17.035Z,23.26
2018-11-06T10:12:47.168Z,23.47
2018-11-06T10:15:17.968Z,22.13
2018-11-06T10:17:48.220Z,23.02
2018-11-06T10:20:18.562Z,23.15
2018-11-06T10:22:48.018Z,25.09
2018-11-06T10:25:17.386Z,25.84
2018-11-06T10:27:46.851Z,23.95
2018-11-06T10:30:17.613Z,22.53
2018-11-06T10:32:47.378Z,23.75
2018-11-06T10:35:16.702Z,24.84
2018-11-06T10:37:46.032Z,27.16
2018-11-06T10:40:18.021Z,27.77
2018-11-06T10:42:47.882Z,27.98
2018-11-06T10:45:18.564Z,27.31
2018-11-06T10:47:48.516Z,27.24
2018-11-06T10:50:18.679Z,27.01
2018-11-06T10:52:48.677Z,26.55
2018-11-06T10:55:18.027Z,26.13
2018-11-06T10:57:47.427Z,25.57
2018-11-06T11:00:21.812Z,24.16
2018-11-06T11:02:56.322Z,22.92
2018-11-06T11:05:27.602Z,23.16
2018-11-06T11:07:56.979Z,23.50
2018-11-06T11:10:26.458Z,23.36
2018-11-06T11:12:57.124Z,23.10
2018-11-06T11:15:28.159Z,22.49
2018-11-06T11:18:00.025Z,22.33
2018-11-06T11:20:30.446Z,22.66
2018-11-06T11:22:59.816Z,22.76
2018-11-06T11:25:29.391Z,22.76
2018-11-06T11:27:58.770Z,22.99
2018-11-06T11:30:28.289Z,23.47
2018-11-06T11:32:57.636Z,23.26
2018-11-06T11:35:26.963Z,23.59
2018-11-06T11:37:56.262Z,23.39
2018-11-06T11:40:25.590Z,24.92
2018-11-06T11:42:54.975Z,25.25
2018-11-06T11:45:24.315Z,25.59
2018-11-06T11:47:53.718Z,25.60
2018-11-06T11:50:23.037Z,25.54
2018-11-06T11:52:52.319Z,26.40
2018-11-06T11:55:21.720Z,25.87
2018-11-06T11:57:50.980Z,26.28
2018-11-06T12:00:21.166Z,27.42
2018-11-06T12:02:50.569Z,28.19
2018-11-06T12:05:20.764Z,29.82
2018-11-06T12:07:50.235Z,29.69
2018-11-06T12:10:19.882Z,30.41
2018-11-06T12:12:49.205Z,30.96
2018-11-06T12:15:18.854Z,31.27
2018-11-06T12:17:48.457Z,31.16
2018-11-06T12:20:18.636Z,30.81
2018-11-06T12:22:48.040Z,30.15
2018-11-06T12:25:17.696Z,30.88
2018-11-06T12:27:46.781Z,30.31
2018-11-06T12:30:17.303Z,29.35
2018-11-06T12:32:47.791Z,28.65
2018-11-06T12:35:17.192Z,28.30
2018-11-06T12:37:46.537Z,26.94
2018-11-06T12:40:16.244Z,27.61
2018-11-06T12:42:45.676Z,28.05
2018-11-06T12:45:16.442Z,28.03
2018-11-06T12:47:46.557Z,28.34
2018-11-06T12:50:16.471Z,28.18
2018-11-06T12:52:45.933Z,28.89
2018-11-06T12:55:16.417Z,28.72
2018-11-06T12:57:45.780Z,29.67
2018-11-06T13:00:16.869Z,29.48
2018-11-06T13:02:46.250Z,29.48
2018-11-06T13:05:15.590Z,28.69
2018-11-06T13:07:45.504Z,28.15
2018-11-06T13:10:15.453Z,26.46
2018-11-06T13:12:44.952Z,26.64
2018-11-06T13:15:15.640Z,26.34
2018-11-06T13:17:44.075Z,27.53
2018-11-06T13:20:14.523Z,28.05
2018-11-06T13:22:44.653Z,27.94
2018-11-06T13:25:13.966Z,27.81
2018-11-06T13:27:43.522Z,28.57
2018-11-06T13:30:17.737Z,29.14
2018-11-06T13:32:47.933Z,27.30
2018-11-06T13:35:17.290Z,27.07
2018-11-06T13:37:46.664Z,26.65
2018-11-06T13:40:16.748Z,25.91
2018-11-06T13:42:46.501Z,25.79
2018-11-06T13:45:17.526Z,24.60
2018-11-06T13:47:46.756Z,23.69
2018-11-06T13:50:16.084Z,23.91
2018-11-06T13:52:45.729Z,24.15
2018-11-06T13:55:15.886Z,23.76
2018-11-06T13:57:47.274Z,23.70
2018-11-06T14:00:18.370Z,23.00
2018-11-06T14:02:48.121Z,22.37
2018-11-06T14:05:17.569Z,20.89
2018-11-06T14:07:46.914Z,21.11
2018-11-06T14:10:17.457Z,21.30
2018-11-06T14:12:50.098Z,21.20
2018-11-06T14:15:19.416Z,21.03
2018-11-06T14:17:48.747Z,21.23
2018-11-06T14:20:18.047Z,20.92
2018-11-06T14:22:47.439Z,20.09
2018-11-06T14:25:16.751Z,19.81
2018-11-06T14:27:46.075Z,19.76
2018-11-06T14:30:18.932Z,19.49
2018-11-06T14:32:48.920Z,19.34
2018-11-06T14:35:19.024Z,19.26
2018-11-06T14:37:48.645Z,19.39
2018-11-06T14:40:18.234Z,19.30
2018-11-06T14:42:47.680Z,19.23
2018-11-06T14:45:18.221Z,18.86
2018-11-06T14:47:47.641Z,18.94
2018-11-06T14:50:17.001Z,19.09
2018-11-06T14:52:46.426Z,19.09
2018-11-06T14:55:16.368Z,18.78
2018-11-06T14:57:45.706Z,18.60
2018-11-06T15:00:17.925Z,18.32
2018-11-06T15:02:48.505Z,18.08
2018-11-06T15:05:18.681Z,17.89
2018-11-06T15:07:48.317Z,17.82
2018-11-06T15:10:17.824Z,17.72
2018-11-06T15:12:47.273Z,17.66
2018-11-06T15:15:17.040Z,17.44
2018-11-06T15:17:47.181Z,17.17
2018-11-06T15:20:18.888Z,16.86
2018-11-06T15:22:49.385Z,16.65
2018-11-06T15:25:19.404Z,16.71
2018-11-06T15:27:48.752Z,16.71
2018-11-06T15:30:18.856Z,16.70
2018-11-06T15:32:48.333Z,16.43
2018-11-06T15:35:19.221Z,16.41
2018-11-06T15:37:48.556Z,16.50
2018-11-06T15:40:19.182Z,16.43
2018-11-06T15:42:48.524Z,16.25
2018-11-06T15:45:18.952Z,16.39
2018-11-06T15:47:50.246Z,16.17
2018-11-06T15:50:20.607Z,16.02
2018-11-06T15:52:50.737Z,16.14
2018-11-06T15:55:20.101Z,16.00
2018-11-06T15:57:49.486Z,16.00
2018-11-06T16:00:21.287Z,16.00
2018-11-06T16:02:50.839Z,16.09
2018-11-06T16:05:20.204Z,16.02
2018-11-06T16:07:50.298Z,15.80
2018-11-06T16:10:21.295Z,15.63
2018-11-06T16:12:50.671Z,15.76
2018-11-06T16:15:20.747Z,15.63
2018-11-06T16:17:50.111Z,15.72
2018-11-06T16:20:20.522Z,15.66
2018-11-06T16:22:49.975Z,15.69
2018-11-06T16:25:19.865Z,15.69
2018-11-06T16:27:49.924Z,15.66
2018-11-06T16:30:20.915Z,15.79
2018-11-06T16:32:50.573Z,15.90
2018-11-06T16:35:21.280Z,15.99
2018-11-06T16:37:52.319Z,15.78
2018-11-06T16:40:21.665Z,15.89
2018-11-06T16:42:51.046Z,15.88
2018-11-06T16:45:22.222Z,15.87
2018-11-06T16:47:53.057Z,15.90
2018-11-06T16:50:22.754Z,15.62
2018-11-06T16:52:53.547Z,15.73
2018-11-06T16:55:22.955Z,15.66
2018-11-06T16:57:53.450Z,15.57
2018-11-06T17:00:24.554Z,15.63
2018-11-06T17:02:53.805Z,15.57
2018-11-06T17:05:23.654Z,15.60
2018-11-06T17:07:53.331Z,15.58
2018-11-06T17:10:22.842Z,15.61
2018-11-06T17:12:52.184Z,15.65
2018-11-06T17:15:22.599Z,15.60
2018-11-06T17:17:52.935Z,15.56
2018-11-06T17:20:24.726Z,15.60
2018-11-06T17:22:54.020Z,15.61
2018-11-06T17:25:23.976Z,15.65
2018-11-06T17:27:53.766Z,15.44
2018-11-06T17:30:23.121Z,15.41
2018-11-06T17:32:52.708Z,15.34
2018-11-06T17:35:22.255Z,15.34
2018-11-06T17:37:51.606Z,15.31
2018-11-06T17:40:21.706Z,15.21
2018-11-06T17:42:51.109Z,15.21
2018-11-06T17:45:21.889Z,15.19
2018-11-06T17:47:51.254Z,15.35
2018-11-06T17:50:21.093Z,15.36
2018-11-06T17:52:50.411Z,15.29
2018-11-06T17:55:20.811Z,15.31
2018-11-06T17:57:50.119Z,15.26
2018-11-06T18:00:21.836Z,15.29
2018-11-06T18:02:51.272Z,15.14
2018-11-06T18:05:23.056Z,14.97
2018-11-06T18:07:52.644Z,14.87
2018-11-06T18:10:22.325Z,14.92
2018-11-06T18:12:52.663Z,14.95
2018-11-06T18:15:21.986Z,15.05
2018-11-06T18:17:51.526Z,15.01
2018-11-06T18:20:20.701Z,14.89
2018-11-06T18:22:50.016Z,14.80
2018-11-06T18:25:19.452Z,14.59
2018-11-06T18:27:48.741Z,14.70
2018-11-06T18:30:19.289Z,14.80
2018-11-06T18:32:48.672Z,14.72
2018-11-06T18:35:18.793Z,14.62
2018-11-06T18:37:48.189Z,14.63
2018-11-06T18:40:19.205Z,14.54
2018-11-06T18:42:50.485Z,14.54
2018-11-06T18:45:19.949Z,14.63
2018-11-06T18:47:49.291Z,14.53
2018-11-06T18:50:19.676Z,14.63
2018-11-06T18:52:50.139Z,14.59
2018-11-06T18:55:19.821Z,14.53
2018-11-06T18:57:50.806Z,14.46
2018-11-06T19:00:21.749Z,14.40
2018-11-06T19:02:53.105Z,14.42
2018-11-06T19:05:23.554Z,14.38
2018-11-06T19:07:52.950Z,14.21
2018-11-06T19:10:22.608Z,14.32
2018-11-06T19:12:52.010Z,14.35
2018-11-06T19:15:22.663Z,14.31
2018-11-06T19:17:52.267Z,14.27
2018-11-06T19:20:21.689Z,14.16
2018-11-06T19:22:51.055Z,14.23
2018-11-06T19:25:20.665Z,14.05
2018-11-06T19:27:50.082Z,13.88
2018-11-06T19:30:20.572Z,13.99
2018-11-06T19:32:50.556Z,14.01
2018-11-06T19:35:19.939Z,13.96
2018-11-06T19:37:49.931Z,13.88
2018-11-06T19:40:19.634Z,13.66
2018-11-06T19:42:49.537Z,13.65
2018-11-06T19:45:19.295Z,13.76
2018-11-06T19:47:48.900Z,13.75
2018-11-06T19:50:19.432Z,13.75
2018-11-06T19:52:48.922Z,13.72
2018-11-06T19:55:18.843Z,13.48
2018-11-06T19:57:48.252Z,13.29
2018-11-06T20:00:20.572Z,13.25
2018-11-06T20:02:51.015Z,13.25
2018-11-06T20:05:20.638Z,13.39
2018-11-06T20:07:50.908Z,13.37
2018-11-06T20:10:21.660Z,13.33
2018-11-06T20:12:52.273Z,13.29
2018-11-06T20:15:21.673Z,13.20
2018-11-06T20:17:51.177Z,13.30
2018-11-06T20:20:23.855Z,13.34
2018-11-06T20:22:53.409Z,13.29
2018-11-06T20:25:22.804Z,13.27
2018-11-06T20:27:52.240Z,13.31
2018-11-06T20:30:23.111Z,13.20
2018-11-06T20:32:52.961Z,13.03
2018-11-06T20:35:22.713Z,12.93
2018-11-06T20:37:52.512Z,13.04
2018-11-06T20:40:24.693Z,13.12
2018-11-06T20:42:54.331Z,13.19
2018-11-06T20:45:24.521Z,13.06
2018-11-06T20:47:54.239Z,13.04
2018-11-06T20:50:25.114Z,13.13
2018-11-06T20:52:54.766Z,13.14
2018-11-06T20:55:25.141Z,13.13
2018-11-06T20:57:55.282Z,13.07
2018-11-06T21:00:29.417Z,13.06
2018-11-06T21:03:00.323Z,12.94
2018-11-06T21:05:29.847Z,12.91
2018-11-06T21:07:59.959Z,12.93
2018-11-06T21:10:31.202Z,12.99
2018-11-06T21:13:00.784Z,12.96
2018-11-06T21:15:30.147Z,12.93
2018-11-06T21:17:59.661Z,12.92
2018-11-06T21:20:29.008Z,12.86
2018-11-06T21:22:58.367Z,12.89
2018-11-06T21:25:27.824Z,12.81
2018-11-06T21:27:57.454Z,12.75
2018-11-06T21:30:27.238Z,12.69
2018-11-06T21:32:57.785Z,12.77
2018-11-06T21:35:28.207Z,12.68
2018-11-06T21:37:58.529Z,12.69
2018-11-06T21:40:28.188Z,12.61
2018-11-06T21:42:57.790Z,12.80
2018-11-06T21:45:27.261Z,12.87
2018-11-06T21:47:56.988Z,12.94
2018-11-06T21:50:26.384Z,12.88
2018-11-06T21:52:56.055Z,12.75
2018-11-06T21:55:25.501Z,12.73
2018-11-06T21:57:54.911Z,12.84
2018-11-06T22:00:24.344Z,12.74
2018-11-06T22:02:53.894Z,12.80
2018-11-06T22:05:23.489Z,12.68
2018-11-06T22:07:52.899Z,12.73
2018-11-06T22:10:22.870Z,12.73
2018-11-06T22:12:52.324Z,12.76
2018-11-06T22:15:21.762Z,12.75
2018-11-06T22:17:51.140Z,12.64
2018-11-06T22:20:20.838Z,12.56
2018-11-06T22:22:50.609Z,12.53
2018-11-06T22:25:20.033Z,12.70
2018-11-06T22:27:49.344Z,12.63
2018-11-06T22:30:18.748Z,12.68
2018-11-06T22:32:48.696Z,12.65
2018-11-06T22:35:18.721Z,12.41
2018-11-06T22:37:48.332Z,12.56
2018-11-06T22:40:18.426Z,12.55
2018-11-06T22:42:47.878Z,12.69
2018-11-06T22:45:17.944Z,12.64
2018-11-06T22:47:47.391Z,12.68
2018-11-06T22:50:17.764Z,12.64
2018-11-06T22:52:47.999Z,12.55
2018-11-06T22:55:17.519Z,12.50
2018-11-06T22:57:46.890Z,12.56
2018-11-06T23:00:23.569Z,12.64
2018-11-06T23:02:52.900Z,12.61
2018-11-06T23:05:24.226Z,12.57
2018-11-06T23:07:58.767Z,12.50
2018-11-06T23:10:28.428Z,12.47
2018-11-06T23:12:57.770Z,12.51
2018-11-06T23:15:27.143Z,12.45
2018-11-06T23:17:56.466Z,12.45
2018-11-06T23:20:25.844Z,12.41
2018-11-06T23:22:55.187Z,12.34
2018-11-06T23:25:24.519Z,12.23
2018-11-06T23:27:53.832Z,12.26
2018-11-06T23:30:23.294Z,12.21
2018-11-06T23:32:53.024Z,12.15
2018-11-06T23:35:22.359Z,12.20
2018-11-06T23:37:51.956Z,12.04
2018-11-06T23:40:21.303Z,11.88
2018-11-06T23:42:50.654Z,11.92
2018-11-06T23:45:19.939Z,11.99
2018-11-06T23:47:49.242Z,11.96
2018-11-06T23:50:18.595Z,12.00
2018-11-06T23:52:47.879Z,11.77
2018-11-06T23:55:17.354Z,11.71
2018-11-06T23:57:46.659Z,11.72
